Time;durP1;ratioP1;P1;durP2;ratioP2;P2;SDS_P1;SDS_P2;PMS_P1;PMS_P2;Temp;Humidity;BMP_temperature;BMP_pressure;BME280_temperature;BME280_humidity;BME280_pressure;Samples;Min_cycle;Max_cycle;Signal;HPM_P1;HPM_P2
2021/01/01 00:01:47;;;;;;;26.70;18.30;;;;;;;6.14;93.41;99857.80;1706976;82;21281;-74
2021/01/01 00:04:17;;;;;;;31.25;20.72;;;;;;;6.10;93.39;99855.38;1678768;83;21473;-74
2021/01/01 00:06:46;;;;;;;34.00;21.33;;;;;;;6.05;93.41;99847.34;1702195;84;21707;-75
2021/01/01 00:09:14;;;;;;;30.35;19.42;;;;;;;6.03;93.45;99847.59;1706898;82;21207;-73
2021/01/01 00:11:45;;;;;;;28.38;18.85;;;;;;;6.04;93.50;99849.72;1704200;84;21653;-73
2021/01/01 00:14:13;;;;;;;33.88;20.40;;;;;;;6.05;93.55;99846.81;1680296;84;21183;-75
2021/01/01 00:16:44;;;;;;;28.38;18.07;;;;;;;6.08;93.56;99844.20;1688034;82;21624;-76
2021/01/01 00:19:13;;;;;;;29.82;20.15;;;;;;;6.09;93.58;99843.17;1695016;83;21199;-75
2021/01/01 00:21:40;;;;;;;29.67;18.77;;;;;;;6.10;93.61;99838.14;1711238;83;21205;-76
2021/01/01 00:24:08;;;;;;;30.65;19.92;;;;;;;6.11;93.63;99839.20;1717418;83;21192;-76
2021/01/01 00:26:37;;;;;;;26.37;17.32;;;;;;;6.11;93.68;99835.76;1717162;83;21287;-76
2021/01/01 00:29:06;;;;;;;27.60;18.77;;;;;;;6.12;93.69;99834.73;1712401;82;21403;-76
2021/01/01 00:31:34;;;;;;;29.40;18.75;;;;;;;6.13;93.71;99838.18;1699623;82;21232;-76
2021/01/01 00:34:02;;;;;;;28.77;18.70;;;;;;;6.13;93.76;99830.23;1705737;83;21636;-76
2021/01/01 00:36:30;;;;;;;27.60;17.52;;;;;;;6.15;93.79;99833.41;1702171;83;21196;-76
2021/01/01 00:38:59;;;;;;;27.48;18.23;;;;;;;6.15;93.79;99832.09;1704234;82;21186;-76
2021/01/01 00:41:31;;;;;;;30.35;19.42;;;;;;;6.12;93.79;99824.13;1693074;82;21402;-76
2021/01/01 00:43:59;;;;;;;29.82;19.20;;;;;;;6.08;93.80;99827.77;1689740;83;21191;-76
2021/01/01 00:46:27;;;;;;;31.35;20.90;;;;;;;6.08;93.83;99827.77;1691888;83;21187;-75
2021/01/01 00:48:58;;;;;;;29.77;18.85;;;;;;;6.08;93.86;99821.66;1690624;83;21204;-76
2021/01/01 00:51:28;;;;;;;28.80;18.87;;;;;;;6.05;93.83;99826.13;1703539;83;21148;-76
2021/01/01 00:53:56;;;;;;;31.17;19.60;;;;;;;6.03;93.87;99824.27;1691737;83;21184;-76
2021/01/01 00:56:25;;;;;;;27.22;16.55;;;;;;;6.01;93.90;99825.02;1688183;83;21181;-75
2021/01/01 00:58:54;;;;;;;29.57;18.42;;;;;;;6.00;93.93;99817.59;1693836;84;21208;-75
2021/01/01 01:01:27;;;;;;;32.35;18.95;;;;;;;5.99;93.94;99813.84;1687712;82;21121;-75
2021/01/01 01:03:56;;;;;;;32.30;19.95;;;;;;;5.98;93.93;99807.75;1685037;83;21211;-75
2021/01/01 01:06:25;;;;;;;30.95;19.92;;;;;;;5.97;93.94;99800.85;1705665;83;21408;-75
2021/01/01 01:08:56;;;;;;;31.17;20.25;;;;;;;5.94;93.91;99803.19;1670334;83;21212;-76
2021/01/01 01:11:28;;;;;;;29.80;19.48;;;;;;;5.91;93.89;99803.64;1709038;81;21723;-76
2021/01/01 01:13:58;;;;;;;29.20;19.10;;;;;;;5.91;93.90;99807.62;1684938;83;21167;-75
2021/01/01 01:16:29;;;;;;;30.97;19.62;;;;;;;5.87;93.85;99804.13;1709279;83;21150;-74
2021/01/01 01:18:59;;;;;;;30.68;20.27;;;;;;;5.81;93.76;99804.31;1699929;84;21551;-75
2021/01/01 01:21:27;;;;;;;34.23;21.50;;;;;;;5.72;93.70;99797.28;1693587;84;21204;-74
2021/01/01 01:23:55;;;;;;;27.07;17.10;;;;;;;5.67;93.67;99783.98;1711582;82;21173;-74
2021/01/01 01:26:23;;;;;;;31.25;18.60;;;;;;;5.63;93.68;99784.20;1667087;83;21728;-75
2021/01/01 01:28:51;;;;;;;31.68;19.80;;;;;;;5.58;93.69;99778.28;1697718;82;21181;-76
2021/01/01 01:31:20;;;;;;;26.90;16.60;;;;;;;5.56;93.71;99772.44;1687439;83;21607;-74
2021/01/01 01:33:47;;;;;;;30.25;19.50;;;;;;;5.55;93.72;99774.79;1688827;83;21180;-74
2021/01/01 01:36:17;;;;;;;31.57;19.42;;;;;;;5.54;93.75;99771.08;1688838;84;21222;-73
2021/01/01 01:38:44;;;;;;;32.95;21.00;;;;;;;5.54;93.76;99772.40;1690349;83;21258;-73
2021/01/01 01:41:12;;;;;;;25.05;16.07;;;;;;;5.52;93.78;99764.67;1685491;84;21157;-73
2021/01/01 01:43:39;;;;;;;32.48;19.82;;;;;;;5.53;93.83;99754.91;1690476;84;21803;-75
2021/01/01 01:46:09;;;;;;;30.48;17.95;;;;;;;5.55;93.84;99759.42;1715413;83;21157;-76
2021/01/01 01:48:38;;;;;;;30.82;18.98;;;;;;;5.53;93.81;99762.86;1720483;82;21110;-76
2021/01/01 01:51:11;;;;;;;32.08;20.17;;;;;;;5.48;93.83;99770.72;1709368;82;21133;-76
2021/01/01 01:53:46;;;;;;;32.08;19.77;;;;;;;5.45;93.88;99768.02;1593774;83;9999678;-75
2021/01/01 01:56:15;;;;;;;31.05;18.70;;;;;;;5.46;93.91;99766.97;1685681;83;21220;-76
2021/01/01 01:58:46;;;;;;;31.48;19.73;;;;;;;5.45;93.95;99752.66;1714700;83;21202;-78
2021/01/01 02:01:13;;;;;;;29.35;18.15;;;;;;;5.44;93.99;99755.83;1712296;82;21211;-77
2021/01/01 02:03:42;;;;;;;34.58;20.43;;;;;;;5.47;94.02;99749.26;1692209;83;21636;-77
2021/01/01 02:06:13;;;;;;;32.58;20.62;;;;;;;5.48;94.05;99749.53;1706087;83;21277;-77
2021/01/01 02:08:42;;;;;;;;;;;;;;;5.47;94.06;99747.93;1710430;83;21224;-76
2021/01/01 02:11:12;;;;;;;32.98;19.57;;;;;;;5.46;94.07;99744.98;1707997;82;20318;-76
2021/01/01 02:13:46;;;;;;;34.08;20.50;;;;;;;5.44;94.10;99741.80;1709317;82;21740;-76
2021/01/01 02:16:14;;;;;;;;;;;;;;;5.45;94.15;99743.39;1712600;83;21204;-77
2021/01/01 02:18:43;;;;;;;30.02;18.95;;;;;;;5.47;94.20;99740.78;1709203;83;21223;-76
2021/01/01 02:21:22;;;;;;;33.60;20.05;;;;;;;5.50;94.21;99738.17;1708413;82;21172;-75
2021/01/01 02:23:50;;;;;;;35.55;20.55;;;;;;;5.53;94.23;99745.64;1708857;81;21584;-76
2021/01/01 02:26:17;;;;;;;33.42;20.82;;;;;;;5.54;94.21;99744.58;1702988;83;21204;-77
2021/01/01 02:28:45;;;;;;;27.50;16.97;;;;;;;5.55;94.21;99739.55;1705985;83;21289;-78
2021/01/01 02:31:13;;;;;;;30.17;18.57;;;;;;;5.55;94.23;99742.20;1685044;83;21487;-76
2021/01/01 02:33:41;;;;;;;33.45;20.48;;;;;;;5.55;94.23;99738.23;1715380;83;21731;-76
2021/01/01 02:36:10;;;;;;;33.75;21.25;;;;;;;5.56;94.23;99728.73;1680326;84;21678;-77
2021/01/01 02:38:42;;;;;;;34.48;21.35;;;;;;;5.58;94.24;99731.12;1707599;83;21176;-78
2021/01/01 02:41:11;;;;;;;29.48;19.00;;;;;;;5.58;94.26;99721.33;1702416;82;21180;-78
2021/01/01 02:43:38;;;;;;;32.98;20.05;;;;;;;5.60;94.27;99721.10;1706613;81;21226;-77
2021/01/01 02:46:06;;;;;;;35.33;23.02;;;;;;;5.63;94.31;99710.02;1669548;84;21237;-78
2021/01/01 02:48:34;;;;;;;33.02;21.15;;;;;;;5.65;94.32;99711.87;1693388;83;21715;-76
2021/01/01 02:51:02;;;;;;;32.73;19.62;;;;;;;5.67;94.34;99713.77;1712110;82;21207;-76
2021/01/01 02:53:31;;;;;;;30.10;19.27;;;;;;;5.69;94.34;99698.41;1709539;83;21202;-77
2021/01/01 02:55:58;;;;;;;32.38;21.80;;;;;;;5.71;94.37;99697.66;1707751;83;21351;-77
2021/01/01 02:58:27;;;;;;;33.83;21.93;;;;;;;5.74;94.40;99693.72;1675682;84;21264;-77
2021/01/01 03:00:55;;;;;;;36.10;21.50;;;;;;;5.78;94.42;99686.88;1683467;84;21175;-76
2021/01/01 03:03:24;;;;;;;28.62;19.07;;;;;;;5.83;94.46;99686.42;1712320;82;21188;-77
2021/01/01 03:05:51;;;;;;;30.32;20.45;;;;;;;5.88;94.50;99687.79;1695588;83;21695;-76
2021/01/01 03:08:20;;;;;;;27.37;18.07;;;;;;;5.94;94.49;99686.57;1685257;83;21417;-76
2021/01/01 03:10:48;;;;;;;26.85;18.42;;;;;;;5.97;94.49;99683.42;1700381;83;21157;-76
2021/01/01 03:13:16;;;;;;;32.23;22.05;;;;;;;5.98;94.46;99681.84;1686111;84;21215;-76
2021/01/01 03:15:44;;;;;;;31.33;20.15;;;;;;;6.02;94.49;99676.84;1683893;83;21269;-75
2021/01/01 03:18:11;;;;;;;29.18;19.77;;;;;;;6.03;94.47;99669.98;1683059;83;21716;-76
2021/01/01 03:20:39;;;;;;;28.80;19.67;;;;;;;6.06;94.46;99670.81;1690335;84;21290;-75
2021/01/01 03:23:07;;;;;;;32.30;20.95;;;;;;;6.09;94.48;99659.71;1703121;82;21212;-76
2021/01/01 03:25:35;;;;;;;28.45;19.37;;;;;;;6.12;94.43;99655.77;1705959;83;21156;-76
2021/01/01 03:28:03;;;;;;;32.15;21.90;;;;;;;6.15;94.44;99659.22;1698081;84;21234;-76
2021/01/01 03:30:31;;;;;;;29.80;20.10;;;;;;;6.16;94.37;99663.49;1697859;84;21223;-76
2021/01/01 03:32:59;;;;;;;31.65;20.70;;;;;;;6.17;94.33;99662.44;1568563;84;9999878;-76
2021/01/01 03:35:27;;;;;;;37.60;22.37;;;;;;;6.17;94.29;99655.80;1713066;83;21518;-76
2021/01/01 03:37:54;;;;;;;30.48;21.45;;;;;;;6.18;94.27;99651.30;1703014;83;21230;-76
2021/01/01 03:40:22;;;;;;;31.68;20.30;;;;;;;6.18;94.21;99638.84;1710562;83;21265;-76
2021/01/01 03:42:50;;;;;;;29.40;20.68;;;;;;;6.17;94.14;99633.80;1708107;83;21393;-78
2021/01/01 03:45:18;;;;;;;27.45;20.12;;;;;;;6.16;94.11;99635.66;1679156;84;21208;-78
2021/01/01 03:47:46;;;;;;;28.67;19.70;;;;;;;6.14;94.06;99633.77;1684272;83;21236;-78
2021/01/01 03:50:14;;;;;;;27.13;19.45;;;;;;;6.14;94.06;99631.11;1694069;83;21192;-78
2021/01/01 03:52:41;;;;;;;28.73;19.57;;;;;;;6.15;93.99;99641.19;1685459;84;21180;-77
2021/01/01 03:55:10;;;;;;;29.27;19.98;;;;;;;6.13;93.94;99647.28;1684881;83;22301;-77
2021/01/01 03:57:40;;;;;;;30.10;19.90;;;;;;;6.13;93.92;99645.96;1702530;82;21193;-77
2021/01/01 04:00:09;;;;;;;27.55;19.62;;;;;;;6.12;93.87;99645.16;1702201;81;21223;-78
2021/01/01 04:02:40;;;;;;;26.85;20.90;;;;;;;6.09;93.78;99637.17;1674750;83;21219;-78
2021/01/01 04:05:08;;;;;;;28.73;19.23;;;;;;;6.07;93.77;99636.61;1689940;83;21211;-78
2021/01/01 04:07:36;;;;;;;30.60;21.87;;;;;;;6.03;93.71;99626.24;1675786;83;22314;-77
2021/01/01 04:10:06;;;;;;;27.27;19.45;;;;;;;6.03;93.69;99615.64;1688203;83;21268;-77
2021/01/01 04:12:33;;;;;;;28.50;20.32;;;;;;;6.04;93.66;99608.48;1708177;82;21172;-77
2021/01/01 04:15:01;;;;;;;27.32;18.87;;;;;;;6.02;93.59;99602.62;1710871;83;21226;-78
2021/01/01 04:17:30;;;;;;;26.57;19.23;;;;;;;6.00;93.55;99603.41;1711582;83;21223;-77
2021/01/01 04:19:58;;;;;;;25.50;18.65;;;;;;;5.96;93.52;99600.46;1664405;85;21292;-76
2021/01/01 04:22:26;;;;;;;23.38;18.05;;;;;;;5.95;93.54;99604.67;1698496;82;21632;-77
2021/01/01 04:24:54;;;;;;;23.38;17.57;;;;;;;5.95;93.54;99606.00;1689568;83;21616;-77
2021/01/01 04:27:22;;;;;;;21.17;15.75;;;;;;;5.96;93.54;99610.27;1682122;84;21204;-77
2021/01/01 04:29:49;;;;;;;21.02;15.40;;;;;;;5.95;93.56;99603.34;1677754;84;21592;-77
2021/01/01 04:32:17;;;;;;;18.67;14.43;;;;;;;5.94;93.56;99607.05;1688969;83;22408;-76
2021/01/01 04:34:45;;;;;;;23.12;16.12;;;;;;;5.94;93.59;99613.16;1690270;84;21157;-76
2021/01/01 04:37:13;;;;;;;23.12;15.60;;;;;;;5.94;93.60;99612.36;1698829;83;21180;-77
2021/01/01 04:39:40;;;;;;;24.30;16.67;;;;;;;5.95;93.59;99613.95;1708520;83;21208;-77
2021/01/01 04:42:09;;;;;;;23.87;16.87;;;;;;;5.91;93.57;99612.30;1681125;84;21203;-77
2021/01/01 04:44:36;;;;;;;22.67;16.70;;;;;;;5.91;93.56;99588.44;1678996;84;21235;-77
2021/01/01 04:47:04;;;;;;;23.45;17.52;;;;;;;5.90;93.49;99590.03;1685724;84;21151;-77
2021/01/01 04:49:33;;;;;;;23.67;17.05;;;;;;;5.85;93.41;99600.83;1701907;83;21212;-76
2021/01/01 04:52:02;;;;;;;25.10;17.40;;;;;;;5.81;93.36;99598.41;1713141;83;21113;-75
2021/01/01 04:54:33;;;;;;;23.60;17.87;;;;;;;5.75;93.30;99603.38;1694490;82;21107;-76
2021/01/01 04:57:01;;;;;;;20.35;15.70;;;;;;;5.73;93.27;99588.27;1690676;84;22321;-74
2021/01/01 04:59:29;;;;;;;23.73;17.57;;;;;;;5.75;93.34;99594.09;1707568;81;21199;-75
2021/01/01 05:01:57;;;;;;;22.60;16.77;;;;;;;5.75;93.26;99590.66;1688860;84;21145;-76
2021/01/01 05:04:24;;;;;;;21.73;16.00;;;;;;;5.73;93.22;99588.27;1690864;83;21185;-77
2021/01/01 05:06:52;;;;;;;19.10;13.98;;;;;;;5.68;93.18;99584.22;1666559;85;21506;-77
2021/01/01 05:09:20;;;;;;;20.55;15.50;;;;;;;5.67;93.21;99577.86;1679456;84;21113;-78
2021/01/01 05:11:47;;;;;;;22.02;16.23;;;;;;;5.65;93.23;99588.69;1719129;83;21216;-77
2021/01/01 05:14:15;;;;;;;23.27;16.87;;;;;;;5.62;93.23;99583.88;1684474;83;21584;-78
2021/01/01 05:16:48;;;;;;;20.68;14.40;;;;;;;5.61;93.24;99580.44;1699794;82;21187;-77
2021/01/01 05:19:16;;;;;;;21.27;14.30;;;;;;;5.61;93.25;99581.77;1696930;82;21168;-77
2021/01/01 05:21:44;;;;;;;22.50;16.23;;;;;;;5.61;93.28;99579.64;1715230;83;22147;-76
2021/01/01 05:24:15;;;;;;;19.98;13.58;;;;;;;5.61;93.32;99587.59;1707794;82;21449;-76
2021/01/01 05:26:48;;;;;;;18.20;13.40;;;;;;;5.62;93.33;99588.66;1720427;83;21059;-76
2021/01/01 05:29:21;;;;;;;18.40;12.47;;;;;;;5.65;93.42;99583.39;1714001;81;21124;-76
2021/01/01 05:31:49;;;;;;;20.27;13.62;;;;;;;5.70;93.46;99587.96;1711463;83;21180;-75
2021/01/01 05:34:20;;;;;;;17.75;11.75;;;;;;;5.72;93.47;99589.82;1699908;82;21621;-76
2021/01/01 05:36:47;;;;;;;16.70;12.23;;;;;;;5.75;93.52;99586.15;1708636;82;21176;-74
2021/01/01 05:39:20;;;;;;;16.67;11.90;;;;;;;5.75;93.52;99584.03;1691680;83;21194;-77
2021/01/01 05:41:51;;;;;;;16.85;12.33;;;;;;;5.78;93.54;99584.33;1690453;84;21118;-76
2021/01/01 05:44:31;;;;;;;16.73;12.75;;;;;;;5.81;93.54;99593.11;1670513;84;21645;-76
2021/01/01 05:47:06;;;;;;;17.77;12.82;;;;;;;5.83;93.54;99580.95;1685283;83;22332;-76
2021/01/01 05:49:38;;;;;;;17.52;12.45;;;;;;;5.87;93.52;99580.72;1711560;83;21232;-76
2021/01/01 05:52:12;;;;;;;17.95;11.60;;;;;;;5.92;93.49;99578.63;1698009;83;21145;-76
2021/01/01 05:54:44;;;;;;;18.65;13.55;;;;;;;5.94;93.42;99579.23;1681090;84;21215;-78
2021/01/01 05:57:14;;;;;;;17.80;12.98;;;;;;;5.93;93.37;99578.43;1696349;82;21062;-74
2021/01/01 05:59:46;;;;;;;17.77;12.63;;;;;;;5.97;93.33;99582.17;1689711;83;21473;-77
2021/01/01 06:02:22;;;;;;;16.40;11.80;;;;;;;6.03;93.22;99578.52;1797349;78;22819;-73
2021/01/01 06:04:49;;;;;;;18.55;13.30;;;;;;;6.00;93.14;99575.58;1748050;79;21111;-73
2021/01/01 06:07:17;;;;;;;19.45;13.72;;;;;;;5.98;93.04;99581.11;1770902;80;21335;-74
2021/01/01 06:09:44;;;;;;;17.20;11.97;;;;;;;5.99;92.97;99577.94;1730410;80;21180;-73
2021/01/01 06:12:14;;;;;;;20.55;13.53;;;;;;;5.98;92.88;99579.79;1775323;79;21091;-72
2021/01/01 06:14:45;;;;;;;16.85;12.53;;;;;;;6.01;92.87;99578.50;1782218;79;21430;-73
2021/01/01 06:17:20;;;;;;;19.20;13.20;;;;;;;6.09;92.81;99568.78;1824924;77;22475;-73
2021/01/01 06:19:57;;;;;;;19.37;13.78;;;;;;;6.03;92.69;99573.22;1795117;77;21063;-72
2021/01/01 06:22:28;;;;;;;19.87;15.32;;;;;;;6.03;92.54;99572.43;1793867;79;21377;-72
2021/01/01 06:25:03;;;;;;;20.57;13.78;;;;;;;6.01;92.47;99566.03;1799825;79;21174;-72
2021/01/01 06:27:32;;;;;;;22.90;14.78;;;;;;;6.02;92.43;99565.50;1793950;77;21152;-72
2021/01/01 06:30:10;;;;;;;18.30;13.08;;;;;;;6.02;92.33;99562.86;1783316;77;21052;-73
2021/01/01 06:32:38;;;;;;;21.45;14.10;;;;;;;6.04;92.28;99560.77;1790536;79;21483;-73
2021/01/01 06:35:23;;;;;;;20.48;14.07;;;;;;;6.06;92.19;99563.45;1796680;77;21869;-73
2021/01/01 06:37:56;;;;;;;20.12;14.10;;;;;;;6.05;92.01;99559.70;1795634;79;21517;-74
2021/01/01 06:40:35;;;;;;;22.62;13.95;;;;;;;5.99;91.82;99562.86;1774571;79;21175;-73
2021/01/01 06:43:06;;;;;;;21.37;15.25;;;;;;;5.97;91.84;99562.83;1787274;79;21135;-74
2021/01/01 06:45:43;;;;;;;24.57;15.60;;;;;;;6.00;91.86;99566.30;1792087;79;21199;-74
2021/01/01 06:48:22;;;;;;;21.77;14.53;;;;;;;6.01;91.77;99568.69;1794864;79;21366;-73
2021/01/01 06:50:51;;;;;;;21.25;13.72;;;;;;;6.04;91.75;99564.21;1793633;77;21132;-73
2021/01/01 06:53:28;;;;;;;21.10;14.33;;;;;;;6.05;91.64;99567.66;1794197;79;21143;-73
2021/01/01 06:56:11;;;;;;;21.95;14.78;;;;;;;6.05;91.59;99566.33;1769744;79;21198;-72
2021/01/01 06:58:39;;;;;;;26.73;16.25;;;;;;;6.08;91.54;99565.83;1788494;77;21483;-73
2021/01/01 07:01:17;;;;;;;20.70;14.78;;;;;;;6.11;91.51;99563.47;1795772;79;21147;-72
2021/01/01 07:03:44;;;;;;;22.10;15.13;;;;;;;6.13;91.42;99563.77;1795974;77;21151;-72
2021/01/01 07:06:17;;;;;;;25.23;15.32;;;;;;;6.12;91.32;99569.60;1795256;79;21167;-73
2021/01/01 07:08:46;;;;;;;23.52;14.98;;;;;;;6.13;91.29;99568.55;1789146;77;21202;-74
2021/01/01 07:11:32;;;;;;;22.20;15.95;;;;;;;6.16;91.21;99572.55;1791081;77;21188;-74
2021/01/01 07:14:11;;;;;;;22.25;14.58;;;;;;;6.18;91.16;99574.41;1788408;79;22292;-73
2021/01/01 07:16:43;;;;;;;23.40;15.20;;;;;;;6.20;91.10;99578.41;1802630;79;21599;-72
2021/01/01 07:19:10;;;;;;;22.67;15.53;;;;;;;6.21;91.06;99576.55;1794778;79;21099;-73
2021/01/01 07:21:39;;;;;;;21.12;13.85;;;;;;;6.21;91.02;99580.00;1788242;77;21116;-73
2021/01/01 07:24:07;;;;;;;22.77;15.38;;;;;;;6.25;90.98;99578.47;1789459;77;21108;-72
2021/01/01 07:26:35;;;;;;;23.18;14.75;;;;;;;6.24;90.92;99578.70;1794882;79;21180;-73
2021/01/01 07:29:04;;;;;;;21.90;13.95;;;;;;;6.27;90.92;99584.30;1786019;77;21183;-74
2021/01/01 07:31:31;;;;;;;23.07;15.00;;;;;;;6.32;90.91;99588.87;1806652;79;21132;-73
2021/01/01 07:34:08;;;;;;;19.23;12.98;;;;;;;6.32;90.88;99594.17;1782219;79;21072;-73
2021/01/01 07:36:36;;;;;;;21.97;14.50;;;;;;;6.36;90.90;99593.94;1778651;79;21148;-73
2021/01/01 07:39:05;;;;;;;23.52;14.23;;;;;;;6.38;90.85;99593.67;1788815;79;21176;-72
2021/01/01 07:41:32;;;;;;;20.97;13.50;;;;;;;6.40;90.84;99599.53;1790142;79;21157;-72
2021/01/01 07:44:00;;;;;;;20.52;13.43;;;;;;;6.43;90.85;99600.36;1782142;79;21175;-73
2021/01/01 07:46:30;;;;;;;23.47;14.53;;;;;;;6.47;90.85;99591.63;1787889;79;21641;-73
2021/01/01 07:48:58;;;;;;;20.62;13.93;;;;;;;6.50;90.90;99596.43;1791313;79;21112;-72
2021/01/01 07:51:26;;;;;;;22.95;13.65;;;;;;;6.56;90.93;99594.63;1791184;78;21826;-73
2021/01/01 07:54:01;;;;;;;18.95;12.75;;;;;;;6.59;90.94;99598.09;1801331;79;21139;-72
2021/01/01 07:56:30;;;;;;;22.05;13.50;;;;;;;6.61;90.95;99601.28;1778603;79;21132;-73
2021/01/01 07:58:58;;;;;;;20.68;13.05;;;;;;;6.64;90.92;99599.98;1790900;79;21481;-70
2021/01/01 08:01:26;;;;;;;19.27;13.08;;;;;;;6.63;90.87;99596.53;1745997;79;21156;-72
2021/01/01 08:03:54;;;;;;;20.57;13.48;;;;;;;6.62;90.83;99594.94;1788632;77;21647;-72
2021/01/01 08:06:21;;;;;;;23.45;13.40;;;;;;;6.63;90.83;99602.37;1800071;77;21191;-73
2021/01/01 08:08:50;;;;;;;20.68;12.65;;;;;;;6.62;90.86;99601.57;1789720;77;21785;-74
2021/01/01 08:11:18;;;;;;;20.35;13.13;;;;;;;6.63;90.86;99609.80;1786945;79;21195;-73
2021/01/01 08:13:46;;;;;;;18.57;13.05;;;;;;;6.64;90.85;99603.95;1794008;78;21271;-73
2021/01/01 08:16:16;;;;;;;19.20;12.68;;;;;;;6.67;90.89;99600.27;1775240;77;21563;-72
2021/01/01 08:18:44;;;;;;;17.17;11.68;;;;;;;6.70;90.87;99597.11;1789959;77;21595;-72
2021/01/01 08:21:12;;;;;;;21.33;12.58;;;;;;;6.76;90.95;99603.26;1785812;77;21115;-72
2021/01/01 08:23:52;;;;;;;21.07;13.18;;;;;;;6.85;91.05;99608.91;1795316;77;21218;-73
2021/01/01 08:26:20;;;;;;;16.27;11.70;;;;;;;6.92;91.05;99616.11;1791700;77;21044;-72
2021/01/01 08:28:52;;;;;;;17.57;11.83;;;;;;;6.96;90.93;99614.00;1790635;79;21783;-74
2021/01/01 08:31:21;;;;;;;18.77;12.50;;;;;;;7.00;90.84;99620.93;1786555;79;21171;-73
2021/01/01 08:33:53;;;;;;;17.37;11.20;;;;;;;7.03;90.75;99619.09;1760073;77;21135;-73
2021/01/01 08:36:31;;;;;;;18.40;12.15;;;;;;;7.07;90.69;99622.83;1787328;77;21151;-73
2021/01/01 08:39:10;;;;;;;18.40;12.30;;;;;;;7.10;90.59;99627.63;1796667;79;21176;-74
2021/01/01 08:41:46;;;;;;;17.70;11.40;;;;;;;7.15;90.54;99630.33;1786670;79;21288;-74
2021/01/01 08:44:14;;;;;;;16.48;11.55;;;;;;;7.22;90.49;99632.22;1792665;77;21219;-73
2021/01/01 08:46:42;;;;;;;19.27;12.10;;;;;;;7.29;90.42;99641.29;1792388;78;21190;-74
2021/01/01 08:49:20;;;;;;;17.80;11.50;;;;;;;7.38;90.38;99650.91;1793364;79;21804;-72
2021/01/01 08:51:49;;;;;;;20.25;11.53;;;;;;;7.44;90.28;99647.22;1792707;79;21131;-73
2021/01/01 08:54:28;;;;;;;17.87;12.05;;;;;;;7.50;90.16;99649.64;1777688;79;21339;-74
2021/01/01 08:56:58;;;;;;;15.43;11.35;;;;;;;7.57;90.08;99648.08;1788102;79;21139;-74
2021/01/01 08:59:27;;;;;;;15.68;11.20;;;;;;;7.68;90.05;99643.60;1793102;79;21203;-73
2021/01/01 09:01:55;;;;;;;18.80;11.48;;;;;;;7.80;89.99;99648.67;1787187;79;21106;-74
2021/01/01 09:04:28;;;;;;;17.25;11.10;;;;;;;7.90;89.97;99646.88;1793857;77;21135;-73
2021/01/01 09:07:03;;;;;;;16.95;10.85;;;;;;;8.03;89.89;99655.40;1792328;78;21171;-73
2021/01/01 09:09:33;;;;;;;14.05;9.85;;;;;;;8.16;89.81;99656.23;1797075;79;21635;-74
2021/01/01 09:12:16;;;;;;;14.73;10.15;;;;;;;8.27;89.75;99654.41;1793014;79;21534;-75
2021/01/01 09:14:49;;;;;;;13.55;10.05;;;;;;;8.36;89.68;99657.63;1797300;79;21172;-73
2021/01/01 09:17:20;;;;;;;13.20;9.13;;;;;;;8.48;89.58;99664.03;1793026;79;21203;-74
2021/01/01 09:19:50;;;;;;;12.55;9.33;;;;;;;8.58;89.47;99671.23;1793287;79;21647;-74
2021/01/01 09:22:18;;;;;;;15.08;9.13;;;;;;;8.64;89.34;99670.97;1793855;79;21151;-74
2021/01/01 09:24:48;;;;;;;12.13;9.13;;;;;;;8.71;89.24;99664.59;1779664;79;21555;-79
2021/01/01 09:27:15;;;;;;;17.90;11.57;;;;;;;8.78;89.18;99665.11;1799866;79;21198;-74
2021/01/01 09:29:43;;;;;;;13.50;9.30;;;;;;;8.84;89.11;99668.05;1782287;79;21396;-74
2021/01/01 09:32:15;;;;;;;14.33;9.65;;;;;;;8.91;89.00;99665.91;1789206;79;21795;-73
2021/01/01 09:34:43;;;;;;;12.90;9.53;;;;;;;8.94;88.81;99666.70;1801264;77;21268;-73
2021/01/01 09:37:17;;;;;;;13.93;9.20;;;;;;;8.96;88.66;99666.45;1784089;79;21378;-78
2021/01/01 09:40:01;;;;;;;17.60;11.03;;;;;;;9.02;88.54;99662.72;1892960;74;23371;-74
2021/01/01 09:42:29;;;;;;;16.77;11.07;;;;;;;8.99;88.45;99665.38;1853960;76;21145;-73
2021/01/01 09:44:56;;;;;;;16.17;11.67;;;;;;;9.02;88.42;99664.85;1856372;77;21853;-73
2021/01/01 09:47:31;;;;;;;14.23;9.63;;;;;;;9.07;88.35;99664.83;1800254;78;21619;-77
2021/01/01 09:49:58;;;;;;;15.70;10.43;;;;;;;9.10;88.31;99659.50;1808314;78;21348;-75
2021/01/01 09:52:26;;;;;;;14.53;10.23;;;;;;;9.15;88.26;99664.30;1794362;79;21311;-74
2021/01/01 09:54:54;;;;;;;15.07;10.60;;;;;;;9.21;88.19;99665.61;1780460;78;21937;-73
2021/01/01 09:57:22;;;;;;;16.10;10.90;;;;;;;9.27;88.17;99667.98;1775873;79;21373;-74
2021/01/01 09:59:49;;;;;;;11.67;9.27;;;;;;;9.33;88.02;99662.92;1785298;78;21402;-74
2021/01/01 10:02:17;;;;;;;13.77;9.33;;;;;;;9.35;87.96;99663.45;1789214;79;21394;-73
2021/01/01 10:04:45;;;;;;;13.90;10.00;;;;;;;9.40;87.85;99671.42;1795734;78;21463;-74
2021/01/01 10:07:15;;;;;;;14.53;10.43;;;;;;;9.46;87.70;99670.88;1799679;78;21816;-73
2021/01/01 10:09:45;;;;;;;14.77;9.77;;;;;;;9.51;87.55;99676.72;1789242;78;22224;-73
2021/01/01 10:12:16;;;;;;;13.57;9.90;;;;;;;9.56;87.43;99672.18;1793869;78;21390;-74
2021/01/01 10:14:43;;;;;;;14.70;9.90;;;;;;;9.62;87.23;99671.10;1757672;79;21293;-74
2021/01/01 10:17:11;;;;;;;15.70;10.23;;;;;;;9.66;87.04;99674.56;1796996;78;21526;-75
2021/01/01 10:19:41;;;;;;;15.33;11.57;;;;;;;9.67;86.82;99680.14;1781301;79;21448;-75
2021/01/01 10:22:09;;;;;;;14.53;10.80;;;;;;;9.68;86.64;99678.55;1796882;79;22048;-74
2021/01/01 10:24:37;;;;;;;14.57;9.90;;;;;;;9.66;86.36;99675.35;1791694;79;22363;-73
2021/01/01 10:27:05;;;;;;;15.80;11.20;;;;;;;9.61;86.19;99681.52;1787713;79;21391;-75
2021/01/01 10:29:33;;;;;;;12.87;9.50;;;;;;;9.58;86.10;99672.72;1802505;78;21299;-73
2021/01/01 10:32:09;;;;;;;11.50;8.47;;;;;;;9.57;85.96;99680.44;1793591;79;21250;-74
2021/01/01 10:34:41;;;;;;;9.83;6.53;;;;;;;9.54;85.84;99682.34;1808111;78;21356;-74
2021/01/01 10:37:12;;;;;;;9.33;6.60;;;;;;;9.50;85.78;99686.59;1773959;79;21504;-74
2021/01/01 10:39:41;;;;;;;7.65;6.08;;;;;;;9.48;85.75;99687.95;1800641;78;24746;-73
2021/01/01 10:42:09;;;;;;;10.73;6.67;;;;;;;9.46;85.75;99692.20;1798243;78;21168;-73
2021/01/01 10:44:39;;;;;;;9.00;6.80;;;;;;;9.44;85.73;99685.00;1791011;78;21420;-74
2021/01/01 10:47:06;;;;;;;11.33;7.20;;;;;;;9.44;85.68;99684.21;1787851;78;21374;-74
2021/01/01 10:49:34;;;;;;;9.10;6.13;;;;;;;9.43;85.71;99683.95;1805091;79;21433;-74
2021/01/01 10:52:03;;;;;;;8.50;5.60;;;;;;;9.43;85.64;99688.75;1792426;78;21982;-74
2021/01/01 10:54:31;;;;;;;9.37;6.30;;;;;;;9.43;85.60;99685.29;1798568;78;21382;-75
2021/01/01 10:56:58;;;;;;;8.60;5.67;;;;;;;9.45;85.61;99687.95;1792472;79;21351;-75
2021/01/01 10:59:27;;;;;;;9.27;5.93;;;;;;;9.49;85.60;99688.21;1793534;78;21851;-75
2021/01/01 11:01:56;;;;;;;10.63;6.00;;;;;;;9.52;85.58;99692.47;1785532;78;21471;-74
2021/01/01 11:04:24;;;;;;;8.63;6.10;;;;;;;9.55;85.51;99695.13;1800627;78;21506;-74
2021/01/01 11:06:52;;;;;;;10.10;6.63;;;;;;;9.57;85.45;99694.30;1803797;78;21441;-73
2021/01/01 11:09:20;;;;;;;11.47;7.20;;;;;;;9.58;85.33;99698.59;1756618;78;21949;-73
2021/01/01 11:11:48;;;;;;;9.43;6.70;;;;;;;9.58;85.22;99698.59;1791547;78;21426;-74
2021/01/01 11:14:23;;;;;;;9.83;7.00;;;;;;;9.59;85.20;99700.97;1783708;78;21297;-75
2021/01/01 12:21:52;;;;;;;12.68;8.55;;;;;;;9.49;84.32;99744.19;1781904;80;21420;-76
2021/01/01 12:26:43;;;;;;;11.47;7.67;;;;;;;9.46;84.37;99746.84;1786223;80;21385;-73
2021/01/01 12:29:11;;;;;;;8.80;6.23;;;;;;;9.42;84.26;99747.13;1787741;79;21479;-74
2021/01/01 12:31:40;;;;;;;8.87;6.70;;;;;;;9.37;84.15;99749.79;1784772;80;21295;-77
2021/01/01 12:34:08;;;;;;;8.17;5.60;;;;;;;9.32;84.14;99755.94;1782563;79;21378;-74
2021/01/01 12:36:35;;;;;;;8.37;6.03;;;;;;;9.30;84.12;99766.05;1779931;78;21438;-73
2021/01/01 12:39:03;;;;;;;7.50;5.10;;;;;;;9.30;84.17;99765.26;1793158;79;21670;-73
2021/01/01 12:41:31;;;;;;;7.83;5.00;;;;;;;9.30;84.18;99764.72;1789438;78;21384;-74
2021/01/01 12:43:59;;;;;;;7.47;5.13;;;;;;;9.32;84.17;99769.80;1800396;79;21504;-73
2021/01/01 12:46:26;;;;;;;7.03;4.30;;;;;;;9.31;84.19;99770.84;1796590;79;21378;-72